sensor_id;sensor_type;location;lat;lon;timestamp;pressure;altitude;pressure_sealevel;temperature;humidity
41040;BME280;48586;50.122;18.972;2023-05-07T00:00:49;98655.34;;;11.17;63.03
41040;BME280;48586;50.122;18.972;2023-05-07T00:02:54;98654.19;;;11.13;63.14
41040;BME280;48586;50.122;18.972;2023-05-07T00:05:00;98648.06;;;11.12;62.91
41040;BME280;48586;50.122;18.972;2023-05-07T00:07:08;98648.41;;;11.16;63.10
41040;BME280;48586;50.122;18.972;2023-05-07T00:09:17;98657.44;;;11.15;62.96
41040;BME280;48586;50.122;18.972;2023-05-07T00:11:23;98659.06;;;11.16;63.20
41040;BME280;48586;50.122;18.972;2023-05-07T00:13:28;98660.44;;;11.18;62.90
41040;BME280;48586;50.122;18.972;2023-05-07T00:15:39;98662.31;;;11.18;62.85
41040;BME280;48586;50.122;18.972;2023-05-07T00:17:44;98656.63;;;11.14;62.72
41040;BME280;48586;50.122;18.972;2023-05-07T00:19:49;98654.78;;;11.15;62.79
41040;BME280;48586;50.122;18.972;2023-05-07T00:21:53;98653.50;;;11.17;62.48
41040;BME280;48586;50.122;18.972;2023-05-07T00:23:58;98652.13;;;11.15;62.36
41040;BME280;48586;50.122;18.972;2023-05-07T00:26:05;98651.88;;;11.16;61.96
41040;BME280;48586;50.122;18.972;2023-05-07T00:28:11;98653.03;;;11.20;62.20
41040;BME280;48586;50.122;18.972;2023-05-07T00:30:17;98657.91;;;11.23;61.64
41040;BME280;48586;50.122;18.972;2023-05-07T00:32:21;98655.72;;;11.20;61.80
41040;BME280;48586;50.122;18.972;2023-05-07T00:34:27;98656.97;;;11.18;61.44
41040;BME280;48586;50.122;18.972;2023-05-07T00:36:32;98657.78;;;11.18;61.49
41040;BME280;48586;50.122;18.972;2023-05-07T00:38:37;98662.53;;;11.16;61.46
41040;BME280;48586;50.122;18.972;2023-05-07T00:40:41;98662.31;;;11.18;61.35
41040;BME280;48586;50.122;18.972;2023-05-07T00:42:50;98665.56;;;11.20;61.49
41040;BME280;48586;50.122;18.972;2023-05-07T00:44:59;98668.59;;;11.23;61.52
41040;BME280;48586;50.122;18.972;2023-05-07T00:47:05;98664.63;;;11.26;61.42
41040;BME280;48586;50.122;18.972;2023-05-07T00:49:11;98673.53;;;11.32;61.13
41040;BME280;48586;50.122;18.972;2023-05-07T00:51:17;98658.69;;;11.36;61.07
41040;BME280;48586;50.122;18.972;2023-05-07T00:53:23;98663.56;;;11.39;60.91
41040;BME280;48586;50.122;18.972;2023-05-07T00:55:29;98668.44;;;11.42;60.91
41040;BME280;48586;50.122;18.972;2023-05-07T00:57:37;98664.63;;;11.49;60.84
41040;BME280;48586;50.122;18.972;2023-05-07T00:59:46;98666.91;;;11.58;60.40
41040;BME280;48586;50.122;18.972;2023-05-07T01:01:52;98666.22;;;11.62;59.76
41040;BME280;48586;50.122;18.972;2023-05-07T01:03:58;98664.47;;;11.68;59.96
41040;BME280;48586;50.122;18.972;2023-05-07T01:06:05;98673.19;;;11.75;59.53
41040;BME280;48586;50.122;18.972;2023-05-07T01:08:15;98675.97;;;11.80;59.62
41040;BME280;48586;50.122;18.972;2023-05-07T01:10:24;98675.00;;;11.86;59.15
41040;BME280;48586;50.122;18.972;2023-05-07T01:12:33;98663.06;;;11.89;59.04
41040;BME280;48586;50.122;18.972;2023-05-07T01:14:39;98660.97;;;11.91;58.71
41040;BME280;48586;50.122;18.972;2023-05-07T01:16:48;98665.59;;;11.95;58.73
41040;BME280;48586;50.122;18.972;2023-05-07T01:18:56;98672.31;;;11.98;58.47
41040;BME280;48586;50.122;18.972;2023-05-07T01:21:04;98673.69;;;12.00;58.20
41040;BME280;48586;50.122;18.972;2023-05-07T01:23:14;98671.34;;;12.04;58.12
41040;BME280;48586;50.122;18.972;2023-05-07T01:25:21;98666.03;;;12.04;57.95
41040;BME280;48586;50.122;18.972;2023-05-07T01:27:30;98673.81;;;12.06;57.99
41040;BME280;48586;50.122;18.972;2023-05-07T01:29:36;98675.97;;;12.09;57.80
41040;BME280;48586;50.122;18.972;2023-05-07T01:31:44;98674.13;;;12.09;57.66
41040;BME280;48586;50.122;18.972;2023-05-07T01:33:52;98672.03;;;12.11;57.61
41040;BME280;48586;50.122;18.972;2023-05-07T01:36:00;98672.59;;;12.13;57.95
41040;BME280;48586;50.122;18.972;2023-05-07T01:38:08;98671.56;;;12.14;57.57
41040;BME280;48586;50.122;18.972;2023-05-07T01:40:17;98674.34;;;12.19;57.50
41040;BME280;48586;50.122;18.972;2023-05-07T01:42:23;98667.69;;;12.22;57.65
41040;BME280;48586;50.122;18.972;2023-05-07T01:44:30;98670.59;;;12.20;56.96
41040;BME280;48586;50.122;18.972;2023-05-07T01:46:35;98675.16;;;12.20;57.14
41040;BME280;48586;50.122;18.972;2023-05-07T01:48:41;98661.53;;;12.21;57.14
41040;BME280;48586;50.122;18.972;2023-05-07T01:50:47;98672.00;;;12.23;57.00
41040;BME280;48586;50.122;18.972;2023-05-07T01:52:52;98669.56;;;12.21;56.82
41040;BME280;48586;50.122;18.972;2023-05-07T01:54:58;98673.28;;;12.20;56.69
41040;BME280;48586;50.122;18.972;2023-05-07T01:57:06;98671.88;;;12.18;56.21
41040;BME280;48586;50.122;18.972;2023-05-07T01:59:11;98670.44;;;12.10;56.34
41040;BME280;48586;50.122;18.972;2023-05-07T02:01:16;98668.22;;;12.07;56.57
41040;BME280;48586;50.122;18.972;2023-05-07T02:03:22;98664.97;;;12.05;56.62
41040;BME280;48586;50.122;18.972;2023-05-07T02:05:39;98669.28;;;12.06;56.66
41040;BME280;48586;50.122;18.972;2023-05-07T02:07:55;98666.03;;;12.04;56.77
41040;BME280;48586;50.122;18.972;2023-05-07T02:10:03;98672.97;;;12.05;57.04
41040;BME280;48586;50.122;18.972;2023-05-07T02:12:11;98668.69;;;12.04;56.81
41040;BME280;48586;50.122;18.972;2023-05-07T02:14:16;98662.78;;;12.02;56.82
41040;BME280;48586;50.122;18.972;2023-05-07T02:16:22;98668.34;;;12.00;57.07
41040;BME280;48586;50.122;18.972;2023-05-07T02:18:27;98671.50;;;11.97;57.23
41040;BME280;48586;50.122;18.972;2023-05-07T02:20:34;98678.47;;;11.98;57.33
41040;BME280;48586;50.122;18.972;2023-05-07T02:22:39;98669.41;;;11.99;57.58
41040;BME280;48586;50.122;18.972;2023-05-07T02:24:44;98676.13;;;12.02;57.47
41040;BME280;48586;50.122;18.972;2023-05-07T02:26:49;98668.47;;;12.06;57.25
41040;BME280;48586;50.122;18.972;2023-05-07T02:28:58;98672.50;;;12.08;57.19
41040;BME280;48586;50.122;18.972;2023-05-07T02:31:03;98673.31;;;12.09;57.34
41040;BME280;48586;50.122;18.972;2023-05-07T02:33:10;98676.31;;;12.12;57.36
41040;BME280;48586;50.122;18.972;2023-05-07T02:35:16;98680.59;;;12.13;57.14
41040;BME280;48586;50.122;18.972;2023-05-07T02:37:22;98678.75;;;12.14;57.03
41040;BME280;48586;50.122;18.972;2023-05-07T02:39:27;98679.09;;;12.17;57.03
41040;BME280;48586;50.122;18.972;2023-05-07T02:41:33;98672.22;;;12.21;56.77
41040;BME280;48586;50.122;18.972;2023-05-07T02:43:38;98685.09;;;12.24;56.94
41040;BME280;48586;50.122;18.972;2023-05-07T02:45:46;98685.44;;;12.28;56.68
41040;BME280;48586;50.122;18.972;2023-05-07T02:47:52;98684.06;;;12.25;56.66
41040;BME280;48586;50.122;18.972;2023-05-07T02:49:58;98688.34;;;12.26;56.41
41040;BME280;48586;50.122;18.972;2023-05-07T02:52:04;98690.78;;;12.28;56.41
41040;BME280;48586;50.122;18.972;2023-05-07T02:54:09;98676.13;;;12.31;56.23
41040;BME280;48586;50.122;18.972;2023-05-07T02:56:14;98684.97;;;12.31;56.04
41040;BME280;48586;50.122;18.972;2023-05-07T02:58:20;98684.13;;;12.31;56.21
41040;BME280;48586;50.122;18.972;2023-05-07T03:00:24;98687.06;;;12.29;56.24
41040;BME280;48586;50.122;18.972;2023-05-07T03:02:54;98684.38;;;12.29;55.99
41040;BME280;48586;50.122;18.972;2023-05-07T03:05:00;98685.19;;;12.30;56.04
41040;BME280;48586;50.122;18.972;2023-05-07T03:07:04;98683.59;;;12.29;55.69
41040;BME280;48586;50.122;18.972;2023-05-07T03:09:10;98687.06;;;12.29;55.75
41040;BME280;48586;50.122;18.972;2023-05-07T03:11:15;98691.84;;;12.27;55.42
41040;BME280;48586;50.122;18.972;2023-05-07T03:13:19;98690.19;;;12.26;55.59
41040;BME280;48586;50.122;18.972;2023-05-07T03:15:25;98692.88;;;12.26;55.64
41040;BME280;48586;50.122;18.972;2023-05-07T03:17:31;98694.75;;;12.25;55.31
41040;BME280;48586;50.122;18.972;2023-05-07T03:19:39;98697.88;;;12.22;55.26
41040;BME280;48586;50.122;18.972;2023-05-07T03:21:44;98705.31;;;12.20;55.45
41040;BME280;48586;50.122;18.972;2023-05-07T03:23:49;98706.38;;;12.19;55.62
41040;BME280;48586;50.122;18.972;2023-05-07T03:25:54;98710.91;;;12.19;55.70
41040;BME280;48586;50.122;18.972;2023-05-07T03:28:00;98715.44;;;12.18;55.22
41040;BME280;48586;50.122;18.972;2023-05-07T03:30:21;98724.16;;;12.14;55.39
41040;BME280;48586;50.122;18.972;2023-05-07T03:32:26;98729.16;;;12.10;55.09
41040;BME280;48586;50.122;18.972;2023-05-07T03:34:32;98725.34;;;12.06;55.55
41040;BME280;48586;50.122;18.972;2023-05-07T03:36:40;98726.38;;;12.05;55.54
41040;BME280;48586;50.122;18.972;2023-05-07T03:38:48;98725.00;;;12.03;55.65
41040;BME280;48586;50.122;18.972;2023-05-07T03:40:58;98728.13;;;11.99;55.75
41040;BME280;48586;50.122;18.972;2023-05-07T03:43:04;98735.34;;;11.99;55.53
41040;BME280;48586;50.122;18.972;2023-05-07T03:45:11;98727.31;;;11.99;55.78
41040;BME280;48586;50.122;18.972;2023-05-07T03:47:19;98728.94;;;12.00;55.34
41040;BME280;48586;50.122;18.972;2023-05-07T03:49:24;98737.19;;;11.98;55.22
41040;BME280;48586;50.122;18.972;2023-05-07T03:51:29;98736.84;;;11.95;55.19
41040;BME280;48586;50.122;18.972;2023-05-07T03:53:37;98729.56;;;11.90;55.36
41040;BME280;48586;50.122;18.972;2023-05-07T03:55:43;98732.69;;;11.87;55.27
41040;BME280;48586;50.122;18.972;2023-05-07T03:57:48;98731.78;;;11.82;55.18
41040;BME280;48586;50.122;18.972;2023-05-07T03:59:54;98740.13;;;11.73;55.46
41040;BME280;48586;50.122;18.972;2023-05-07T04:02:00;98742.06;;;11.66;55.63
41040;BME280;48586;50.122;18.972;2023-05-07T04:04:06;98745.69;;;11.60;55.53
41040;BME280;48586;50.122;18.972;2023-05-07T04:06:11;98748.94;;;11.50;55.46
41040;BME280;48586;50.122;18.972;2023-05-07T04:08:19;98748.47;;;11.42;55.99
41040;BME280;48586;50.122;18.972;2023-05-07T04:10:30;98754.72;;;11.36;55.93
41040;BME280;48586;50.122;18.972;2023-05-07T04:12:38;98757.63;;;11.34;56.14
41040;BME280;48586;50.122;18.972;2023-05-07T04:14:44;98758.44;;;11.35;56.21
41040;BME280;48586;50.122;18.972;2023-05-07T04:16:49;98755.88;;;11.40;56.33
41040;BME280;48586;50.122;18.972;2023-05-07T04:18:54;98767.72;;;11.44;55.90
41040;BME280;48586;50.122;18.972;2023-05-07T04:20:59;98765.16;;;11.49;55.89
41040;BME280;48586;50.122;18.972;2023-05-07T04:23:03;98764.94;;;11.50;55.88
41040;BME280;48586;50.122;18.972;2023-05-07T04:25:09;98768.19;;;11.52;55.65
41040;BME280;48586;50.122;18.972;2023-05-07T04:27:17;98774.09;;;11.55;55.91
41040;BME280;48586;50.122;18.972;2023-05-07T04:29:21;98774.47;;;11.58;56.07
41040;BME280;48586;50.122;18.972;2023-05-07T04:31:25;98778.75;;;11.59;55.59
41040;BME280;48586;50.122;18.972;2023-05-07T04:33:30;98785.47;;;11.62;55.97
41040;BME280;48586;50.122;18.972;2023-05-07T04:35:36;98785.00;;;11.65;55.62
41040;BME280;48586;50.122;18.972;2023-05-07T04:37:41;98789.09;;;11.67;55.65
41040;BME280;48586;50.122;18.972;2023-05-07T04:39:46;98788.88;;;11.69;55.26
41040;BME280;48586;50.122;18.972;2023-05-07T04:41:50;98792.94;;;11.71;55.00
41040;BME280;48586;50.122;18.972;2023-05-07T04:43:57;98798.03;;;11.73;55.07
41040;BME280;48586;50.122;18.972;2023-05-07T04:46:07;98801.16;;;11.70;54.96
41040;BME280;48586;50.122;18.972;2023-05-07T04:48:11;98807.56;;;11.69;54.82
41040;BME280;48586;50.122;18.972;2023-05-07T04:50:16;98815.75;;;11.67;54.89
41040;BME280;48586;50.122;18.972;2023-05-07T04:52:22;98817.84;;;11.65;54.70
41040;BME280;48586;50.122;18.972;2023-05-07T04:54:27;98817.16;;;11.58;54.51
41040;BME280;48586;50.122;18.972;2023-05-07T04:56:32;98820.16;;;11.50;54.45
41040;BME280;48586;50.122;18.972;2023-05-07T04:58:37;98821.06;;;11.44;54.76
41040;BME280;48586;50.122;18.972;2023-05-07T05:00:45;98818.16;;;11.34;54.74
41040;BME280;48586;50.122;18.972;2023-05-07T05:02:50;98825.66;;;11.25;55.24
41040;BME280;48586;50.122;18.972;2023-05-07T05:04:57;98826.34;;;11.20;55.16
41040;BME280;48586;50.122;18.972;2023-05-07T05:07:03;98822.06;;;11.19;55.26
41040;BME280;48586;50.122;18.972;2023-05-07T05:09:07;98832.50;;;11.21;55.23
41040;BME280;48586;50.122;18.972;2023-05-07T05:11:14;98826.94;;;11.22;54.89
41040;BME280;48586;50.122;18.972;2023-05-07T05:13:18;98829.59;;;11.22;54.93
41040;BME280;48586;50.122;18.972;2023-05-07T05:15:23;98835.41;;;11.19;54.94
41040;BME280;48586;50.122;18.972;2023-05-07T05:17:30;98827.63;;;11.18;54.92
41040;BME280;48586;50.122;18.972;2023-05-07T05:19:37;98833.19;;;11.16;54.96
41040;BME280;48586;50.122;18.972;2023-05-07T05:21:41;98841.63;;;11.13;55.23
41040;BME280;48586;50.122;18.972;2023-05-07T05:23:47;98846.97;;;11.13;54.91
41040;BME280;48586;50.122;18.972;2023-05-07T05:25:56;98846.59;;;11.10;55.31
41040;BME280;48586;50.122;18.972;2023-05-07T05:28:04;98847.88;;;11.07;54.97
41040;BME280;48586;50.122;18.972;2023-05-07T05:30:11;98849.50;;;11.08;55.18
41040;BME280;48586;50.122;18.972;2023-05-07T05:32:18;98855.41;;;11.10;55.30
41040;BME280;48586;50.122;18.972;2023-05-07T05:34:26;98855.78;;;11.14;54.89
41040;BME280;48586;50.122;18.972;2023-05-07T05:36:31;98857.19;;;11.16;54.91
41040;BME280;48586;50.122;18.972;2023-05-07T05:38:36;98861.47;;;11.17;55.00
41040;BME280;48586;50.122;18.972;2023-05-07T05:40:40;98861.91;;;11.14;54.96
41040;BME280;48586;50.122;18.972;2023-05-07T05:42:45;98864.00;;;11.12;55.37
41040;BME280;48586;50.122;18.972;2023-05-07T05:44:51;98868.75;;;11.10;55.32
41040;BME280;48586;50.122;18.972;2023-05-07T05:46:55;98866.53;;;11.07;55.34
41040;BME280;48586;50.122;18.972;2023-05-07T05:49:02;98866.66;;;11.12;55.70
41040;BME280;48586;50.122;18.972;2023-05-07T05:51:09;98865.53;;;11.20;55.67
41040;BME280;48586;50.122;18.972;2023-05-07T05:53:13;98876.09;;;11.26;55.27
41040;BME280;48586;50.122;18.972;2023-05-07T05:55:19;98864.53;;;11.33;54.98
41040;BME280;48586;50.122;18.972;2023-05-07T05:57:24;98869.19;;;11.37;54.52
41040;BME280;48586;50.122;18.972;2023-05-07T05:59:28;98873.13;;;11.35;54.60
41040;BME280;48586;50.122;18.972;2023-05-07T06:01:33;98872.91;;;11.36;54.67
41040;BME280;48586;50.122;18.972;2023-05-07T06:03:38;98870.81;;;11.38;54.58
41040;BME280;48586;50.122;18.972;2023-05-07T06:05:48;98875.91;;;11.40;54.55
41040;BME280;48586;50.122;18.972;2023-05-07T06:07:57;98874.28;;;11.39;54.39
41040;BME280;48586;50.122;18.972;2023-05-07T06:10:07;98884.38;;;11.37;54.56
41040;BME280;48586;50.122;18.972;2023-05-07T06:12:12;98888.75;;;11.31;54.33
41040;BME280;48586;50.122;18.972;2023-05-07T06:14:17;98884.91;;;11.27;54.22
41040;BME280;48586;50.122;18.972;2023-05-07T06:16:21;98879.94;;;11.19;54.09
41040;BME280;48586;50.122;18.972;2023-05-07T06:18:25;98888.31;;;11.04;54.33
41040;BME280;48586;50.122;18.972;2023-05-07T06:20:31;98890.63;;;11.00;54.91
41040;BME280;48586;50.122;18.972;2023-05-07T06:22:38;98890.97;;;11.04;54.88
41040;BME280;48586;50.122;18.972;2023-05-07T06:24:46;98887.06;;;11.07;54.95
41040;BME280;48586;50.122;18.972;2023-05-07T06:26:51;98898.41;;;11.02;54.41
41040;BME280;48586;50.122;18.972;2023-05-07T06:28:55;98905.28;;;10.91;54.39
41040;BME280;48586;50.122;18.972;2023-05-07T06:31:11;98900.78;;;10.92;54.88
41040;BME280;48586;50.122;18.972;2023-05-07T06:33:19;98906.72;;;10.94;54.83
41040;BME280;48586;50.122;18.972;2023-05-07T06:35:24;98904.63;;;10.96;54.58
41040;BME280;48586;50.122;18.972;2023-05-07T06:37:28;98903.22;;;10.93;54.54
41040;BME280;48586;50.122;18.972;2023-05-07T06:39:39;98908.88;;;10.85;54.43
41040;BME280;48586;50.122;18.972;2023-05-07T06:41:46;98904.34;;;10.86;54.62
41040;BME280;48586;50.122;18.972;2023-05-07T06:43:58;98905.38;;;10.85;54.39
41040;BME280;48586;50.122;18.972;2023-05-07T06:46:17;98907.97;;;10.73;54.66
41040;BME280;48586;50.122;18.972;2023-05-07T06:48:21;98908.66;;;10.68;54.98
41040;BME280;48586;50.122;18.972;2023-05-07T06:50:37;98914.41;;;10.65;55.15
41040;BME280;48586;50.122;18.972;2023-05-07T06:52:42;98921.38;;;10.66;55.10
41040;BME280;48586;50.122;18.972;2023-05-07T06:54:47;98918.25;;;10.69;54.85
41040;BME280;48586;50.122;18.972;2023-05-07T06:56:57;98919.22;;;10.75;55.10
41040;BME280;48586;50.122;18.972;2023-05-07T06:59:04;98915.06;;;10.79;54.65
41040;BME280;48586;50.122;18.972;2023-05-07T07:01:15;98921.72;;;10.88;54.67
41040;BME280;48586;50.122;18.972;2023-05-07T07:03:19;98928.41;;;10.97;54.32
41040;BME280;48586;50.122;18.972;2023-05-07T07:05:24;98929.47;;;11.08;53.93
41040;BME280;48586;50.122;18.972;2023-05-07T07:07:30;98934.75;;;11.15;53.13
41040;BME280;48586;50.122;18.972;2023-05-07T07:09:38;98925.69;;;11.16;53.38
41040;BME280;48586;50.122;18.972;2023-05-07T07:11:45;98934.63;;;11.21;53.14
41040;BME280;48586;50.122;18.972;2023-05-07T07:13:52;98936.63;;;11.26;53.25
41040;BME280;48586;50.122;18.972;2023-05-07T07:15:58;98936.56;;;11.33;52.89
41040;BME280;48586;50.122;18.972;2023-05-07T07:18:04;98935.19;;;11.42;52.52
41040;BME280;48586;50.122;18.972;2023-05-07T07:20:10;98938.78;;;11.47;52.06
41040;BME280;48586;50.122;18.972;2023-05-07T07:22:16;98940.78;;;11.52;51.81
41040;BME280;48586;50.122;18.972;2023-05-07T07:24:22;98947.28;;;11.56;52.10
41040;BME280;48586;50.122;18.972;2023-05-07T07:26:30;98956.34;;;11.55;51.55
41040;BME280;48586;50.122;18.972;2023-05-07T07:28:34;98957.97;;;11.56;51.41
41040;BME280;48586;50.122;18.972;2023-05-07T07:30:42;98952.88;;;11.55;51.81
41040;BME280;48586;50.122;18.972;2023-05-07T07:32:46;98959.59;;;11.57;51.37
41040;BME280;48586;50.122;18.972;2023-05-07T07:34:50;98956.59;;;11.54;51.51
41040;BME280;48586;50.122;18.972;2023-05-07T07:36:55;98961.69;;;11.55;51.74
41040;BME280;48586;50.122;18.972;2023-05-07T07:39:00;98959.13;;;11.60;51.32
41040;BME280;48586;50.122;18.972;2023-05-07T07:41:07;98965.66;;;11.64;51.10
41040;BME280;48586;50.122;18.972;2023-05-07T07:43:13;98963.56;;;11.66;51.13
41040;BME280;48586;50.122;18.972;2023-05-07T07:45:18;98967.06;;;11.67;50.98
41040;BME280;48586;50.122;18.972;2023-05-07T07:47:26;98963.06;;;11.76;50.73
41040;BME280;48586;50.122;18.972;2023-05-07T07:49:31;98973.50;;;11.78;50.74
41040;BME280;48586;50.122;18.972;2023-05-07T07:51:39;98975.25;;;11.84;50.60
41040;BME280;48586;50.122;18.972;2023-05-07T07:53:45;98980.13;;;11.87;50.05
41040;BME280;48586;50.122;18.972;2023-05-07T07:55:51;98972.94;;;11.87;50.12
41040;BME280;48586;50.122;18.972;2023-05-07T07:57:59;98973.53;;;11.89;49.88
41040;BME280;48586;50.122;18.972;2023-05-07T08:00:05;98978.88;;;11.89;50.18
41040;BME280;48586;50.122;18.972;2023-05-07T08:02:19;98973.06;;;11.92;49.53
41040;BME280;48586;50.122;18.972;2023-05-07T08:04:27;98982.47;;;11.95;49.69
41040;BME280;48586;50.122;18.972;2023-05-07T08:06:37;98986.75;;;11.84;49.70
41040;BME280;48586;50.122;18.972;2023-05-07T08:08:44;98982.44;;;11.83;49.29
41040;BME280;48586;50.122;18.972;2023-05-07T08:10:49;98985.94;;;11.84;49.68
41040;BME280;48586;50.122;18.972;2023-05-07T08:13:01;98987.91;;;11.88;49.56
41040;BME280;48586;50.122;18.972;2023-05-07T08:15:09;98988.94;;;11.87;49.11
41040;BME280;48586;50.122;18.972;2023-05-07T08:17:14;98989.19;;;11.86;49.18
41040;BME280;48586;50.122;18.972;2023-05-07T08:19:21;98987.69;;;11.90;49.04
41040;BME280;48586;50.122;18.972;2023-05-07T08:21:30;98989.22;;;11.97;49.08
41040;BME280;48586;50.122;18.972;2023-05-07T08:23:34;98989.69;;;12.06;48.51
41040;BME280;48586;50.122;18.972;2023-05-07T08:25:39;98988.53;;;12.02;48.44
41040;BME280;48586;50.122;18.972;2023-05-07T08:27:46;99004.44;;;12.09;48.46
41040;BME280;48586;50.122;18.972;2023-05-07T08:29:51;98990.97;;;12.04;48.47
41040;BME280;48586;50.122;18.972;2023-05-07T08:31:57;98996.78;;;12.12;48.53
41040;BME280;48586;50.122;18.972;2023-05-07T08:34:04;99000.06;;;12.14;48.62
41040;BME280;48586;50.122;18.972;2023-05-07T08:36:11;99004.34;;;12.15;48.43
41040;BME280;48586;50.122;18.972;2023-05-07T08:38:18;99011.22;;;12.23;47.95
41040;BME280;48586;50.122;18.972;2023-05-07T08:40:26;99008.75;;;12.21;47.77
41040;BME280;48586;50.122;18.972;2023-05-07T08:42:36;99007.03;;;12.27;47.63
41040;BME280;48586;50.122;18.972;2023-05-07T08:44:45;99014.00;;;12.28;47.86
41040;BME280;48586;50.122;18.972;2023-05-07T08:46:56;99016.06;;;12.26;47.81
41040;BME280;48586;50.122;18.972;2023-05-07T08:49:02;99015.84;;;12.28;47.83
41040;BME280;48586;50.122;18.972;2023-05-07T08:51:12;99018.03;;;12.31;47.49
41040;BME280;48586;50.122;18.972;2023-05-07T08:53:20;99030.59;;;12.30;47.22
41040;BME280;48586;50.122;18.972;2023-05-07T08:55:28;99025.59;;;12.22;47.54
41040;BME280;48586;50.122;18.972;2023-05-07T08:57:34;99024.09;;;12.26;47.07
41040;BME280;48586;50.122;18.972;2023-05-07T08:59:40;99037.78;;;12.30;46.71
41040;BME280;48586;50.122;18.972;2023-05-07T09:01:47;99034.44;;;12.34;46.72
41040;BME280;48586;50.122;18.972;2023-05-07T09:03:52;99033.16;;;12.37;47.11
41040;BME280;48586;50.122;18.972;2023-05-07T09:05:59;99036.53;;;12.44;47.03
41040;BME280;48586;50.122;18.972;2023-05-07T09:08:06;99035.03;;;12.48;46.75
41040;BME280;48586;50.122;18.972;2023-05-07T09:10:15;99037.34;;;12.56;46.83
41040;BME280;48586;50.122;18.972;2023-05-07T09:12:22;99037.59;;;12.66;47.01
41040;BME280;48586;50.122;18.972;2023-05-07T09:14:27;99039.44;;;12.77;46.56
41040;BME280;48586;50.122;18.972;2023-05-07T09:16:32;99041.00;;;12.85;45.78
41040;BME280;48586;50.122;18.972;2023-05-07T09:18:40;99041.59;;;12.87;45.96
41040;BME280;48586;50.122;18.972;2023-05-07T09:20:47;99042.25;;;12.94;45.85
41040;BME280;48586;50.122;18.972;2023-05-07T09:22:55;99037.38;;;13.03;45.74
41040;BME280;48586;50.122;18.972;2023-05-07T09:25:01;99040.03;;;13.15;45.90
41040;BME280;48586;50.122;18.972;2023-05-07T09:27:08;99044.78;;;13.24;45.62
41040;BME280;48586;50.122;18.972;2023-05-07T09:29:16;99046.97;;;13.28;45.25
41040;BME280;48586;50.122;18.972;2023-05-07T09:31:21;99058.75;;;13.27;45.05
41040;BME280;48586;50.122;18.972;2023-05-07T09:33:29;99051.44;;;13.22;46.26
41040;BME280;48586;50.122;18.972;2023-05-07T09:35:37;99054.78;;;13.17;45.93
41040;BME280;48586;50.122;18.972;2023-05-07T09:37:48;99061.88;;;13.12;45.62
41040;BME280;48586;50.122;18.972;2023-05-07T09:39:54;99059.47;;;13.10;45.67
41040;BME280;48586;50.122;18.972;2023-05-07T09:42:01;99062.50;;;13.14;46.25
41040;BME280;48586;50.122;18.972;2023-05-07T09:44:14;99062.34;;;13.20;45.92
41040;BME280;48586;50.122;18.972;2023-05-07T09:46:29;99068.59;;;13.26;45.61
41040;BME280;48586;50.122;18.972;2023-05-07T09:48:42;99068.94;;;13.30;45.83
41040;BME280;48586;50.122;18.972;2023-05-07T09:50:51;99065.72;;;13.28;45.30
41040;BME280;48586;50.122;18.972;2023-05-07T09:53:05;99075.16;;;13.18;44.43
41040;BME280;48586;50.122;18.972;2023-05-07T09:55:15;99073.41;;;13.12;45.06
41040;BME280;48586;50.122;18.972;2023-05-07T09:57:23;99076.22;;;13.06;45.12
41040;BME280;48586;50.122;18.972;2023-05-07T09:59:42;99078.44;;;12.97;45.15
41040;BME280;48586;50.122;18.972;2023-05-07T10:01:56;99081.31;;;12.84;45.13
41040;BME280;48586;50.122;18.972;2023-05-07T10:04:03;99084.22;;;12.70;45.58
41040;BME280;48586;50.122;18.972;2023-05-07T10:06:10;99083.03;;;12.66;45.55
41040;BME280;48586;50.122;18.972;2023-05-07T10:08:17;99080.72;;;12.58;45.65
41040;BME280;48586;50.122;18.972;2023-05-07T10:10:27;99082.09;;;12.49;46.01
41040;BME280;48586;50.122;18.972;2023-05-07T10:12:35;99081.13;;;12.43;46.07
41040;BME280;48586;50.122;18.972;2023-05-07T10:14:53;99093.69;;;12.31;45.66
41040;BME280;48586;50.122;18.972;2023-05-07T10:17:02;99101.78;;;12.24;46.34
41040;BME280;48586;50.122;18.972;2023-05-07T10:19:09;99100.84;;;12.19;46.74
41040;BME280;48586;50.122;18.972;2023-05-07T10:21:19;99106.03;;;12.14;46.40
41040;BME280;48586;50.122;18.972;2023-05-07T10:23:31;99109.25;;;12.04;46.65
41040;BME280;48586;50.122;18.972;2023-05-07T10:25:38;99108.38;;;11.92;46.87
41040;BME280;48586;50.122;18.972;2023-05-07T10:27:53;99112.03;;;11.79;47.38
41040;BME280;48586;50.122;18.972;2023-05-07T10:30:14;99104.94;;;11.73;47.97
41040;BME280;48586;50.122;18.972;2023-05-07T10:32:39;99105.69;;;11.80;48.09
41040;BME280;48586;50.122;18.972;2023-05-07T10:34:54;99116.41;;;11.92;47.93
41040;BME280;48586;50.122;18.972;2023-05-07T10:37:01;99110.88;;;12.05;48.02
41040;BME280;48586;50.122;18.972;2023-05-07T10:39:10;99113.41;;;12.18;48.04
41040;BME280;48586;50.122;18.972;2023-05-07T10:41:15;99117.72;;;12.31;47.40
41040;BME280;48586;50.122;18.972;2023-05-07T10:43:22;99118.88;;;12.35;46.85
41040;BME280;48586;50.122;18.972;2023-05-07T10:45:35;99118.44;;;12.38;47.23
41040;BME280;48586;50.122;18.972;2023-05-07T10:48:05;99121.69;;;12.52;46.89
41040;BME280;48586;50.122;18.972;2023-05-07T10:50:21;99118.25;;;12.63;47.08
41040;BME280;48586;50.122;18.972;2023-05-07T10:52:32;99107.56;;;12.63;46.44
41040;BME280;48586;50.122;18.972;2023-05-07T10:54:47;99114.63;;;12.69;46.36
41040;BME280;48586;50.122;18.972;2023-05-07T10:57:44;99119.88;;;12.76;45.93
41040;BME280;48586;50.122;18.972;2023-05-07T11:00:01;99123.38;;;12.76;45.82
41040;BME280;48586;50.122;18.972;2023-05-07T11:02:11;99121.03;;;12.68;45.94
41040;BME280;48586;50.122;18.972;2023-05-07T11:04:30;99133.13;;;12.59;45.83
41040;BME280;48586;50.122;18.972;2023-05-07T11:09:59;99138.56;;;12.22;45.95